createdAt,value
2023-05-03T00:04:10.060Z,10.44
2023-05-03T00:09:11.703Z,10.35
2023-05-03T00:14:12.999Z,10.30
2023-05-03T00:19:24.241Z,10.22
2023-05-03T00:24:29.603Z,10.21
2023-05-03T00:29:30.926Z,10.21
2023-05-03T00:34:32.221Z,10.18
2023-05-03T00:39:33.557Z,10.18
2023-05-03T00:44:34.890Z,10.12
2023-05-03T00:49:36.747Z,10.05
2023-05-03T00:54:38.565Z,10.05
2023-05-03T00:59:40.235Z,9.99
2023-05-03T01:04:43.416Z,9.89
2023-05-03T01:10:04.752Z,9.86
2023-05-03T01:15:17.662Z,9.82
2023-05-03T01:20:24.855Z,9.75
2023-05-03T01:25:27.280Z,9.72
2023-05-03T01:30:31.908Z,9.61
2023-05-03T01:36:00.038Z,9.63
2023-05-03T01:41:06.248Z,9.50
2023-05-03T01:46:08.274Z,9.57
2023-05-03T01:51:09.750Z,9.47
2023-05-03T01:56:11.740Z,9.44
2023-05-03T02:01:13.178Z,9.44
2023-05-03T02:06:14.529Z,9.33
2023-05-03T02:11:15.853Z,9.23
2023-05-03T02:16:20.156Z,9.28
2023-05-03T02:21:21.535Z,9.20
2023-05-03T02:26:22.818Z,9.22
2023-05-03T02:31:24.887Z,9.15
2023-05-03T02:36:26.314Z,9.15
2023-05-03T02:41:28.603Z,9.13
2023-05-03T02:46:29.986Z,9.04
2023-05-03T02:51:32.404Z,9.03
2023-05-03T02:56:33.879Z,9.01
2023-05-03T03:01:35.284Z,8.96
2023-05-03T03:06:36.651Z,8.93
2023-05-03T03:11:38.237Z,8.85
2023-05-03T03:16:39.590Z,8.77
2023-05-03T03:21:41.652Z,8.83
2023-05-03T03:26:42.943Z,8.76
2023-05-03T03:31:44.854Z,8.65
2023-05-03T03:36:46.212Z,8.67
2023-05-03T03:41:47.686Z,8.61
2023-05-03T03:46:51.004Z,8.52
2023-05-03T03:51:52.425Z,8.51
2023-05-03T03:56:53.724Z,8.52
2023-05-03T04:01:55.024Z,8.44
2023-05-03T04:06:56.362Z,8.41
2023-05-03T04:11:57.689Z,8.35
2023-05-03T04:16:59.087Z,8.33
2023-05-03T04:22:00.426Z,8.38
2023-05-03T04:27:04.492Z,8.37
2023-05-03T04:32:07.711Z,8.35
2023-05-03T04:37:09.671Z,8.39
2023-05-03T04:42:12.225Z,8.21
2023-05-03T04:47:13.524Z,8.33
2023-05-03T04:52:14.876Z,8.32
2023-05-03T04:57:16.438Z,8.38
2023-05-03T05:02:17.870Z,8.45
2023-05-03T05:07:19.270Z,8.45
2023-05-03T05:12:21.449Z,8.52
2023-05-03T05:17:23.927Z,8.57
2023-05-03T05:22:25.362Z,8.62
2023-05-03T05:27:27.193Z,8.67
2023-05-03T05:32:28.688Z,8.75
2023-05-03T05:37:30.180Z,8.80
2023-05-03T05:42:32.102Z,8.85
2023-05-03T05:47:33.529Z,9.04
2023-05-03T05:52:35.013Z,9.25
2023-05-03T05:57:36.318Z,9.31
2023-05-03T06:02:37.854Z,9.44
2023-05-03T06:07:39.234Z,9.60
2023-05-03T06:12:40.820Z,9.68
2023-05-03T06:17:42.243Z,9.69
2023-05-03T06:22:43.818Z,9.93
2023-05-03T06:27:45.103Z,10.07
2023-05-03T06:32:47.748Z,10.20
2023-05-03T06:37:49.521Z,10.32
2023-05-03T06:42:50.961Z,10.53
2023-05-03T06:47:52.323Z,10.66
2023-05-03T06:52:54.318Z,10.75
2023-05-03T06:57:55.647Z,10.94
2023-05-03T07:02:57.158Z,11.07
2023-05-03T07:07:58.504Z,11.28
2023-05-03T07:12:59.836Z,11.44
2023-05-03T07:18:01.474Z,11.46
2023-05-03T07:23:02.940Z,11.61
2023-05-03T07:28:04.422Z,11.88
2023-05-03T07:33:05.914Z,11.97
2023-05-03T07:38:07.321Z,12.11
2023-05-03T07:43:12.636Z,12.35
2023-05-03T07:48:13.950Z,12.51
2023-05-03T07:53:15.360Z,12.76
2023-05-03T07:58:17.498Z,12.88
2023-05-03T08:03:19.874Z,13.02
2023-05-03T08:08:21.412Z,13.19
2023-05-03T08:13:23.309Z,13.30
2023-05-03T08:18:24.842Z,13.31
2023-05-03T08:23:26.375Z,13.54
2023-05-03T08:28:28.150Z,13.82
2023-05-03T08:33:29.741Z,14.01
2023-05-03T08:38:31.377Z,14.11
2023-05-03T08:43:40.066Z,14.31
2023-05-03T08:48:43.066Z,14.63
2023-05-03T08:53:44.961Z,14.75
2023-05-03T08:58:46.379Z,15.05
2023-05-03T09:03:51.874Z,15.24
2023-05-03T09:08:54.691Z,15.36
2023-05-03T09:14:17.378Z,15.68
2023-05-03T09:19:18.678Z,15.92
2023-05-03T09:24:21.860Z,16.07
2023-05-03T09:29:31.661Z,16.40
2023-05-03T09:34:33.594Z,16.51
2023-05-03T09:39:37.110Z,16.76
2023-05-03T09:44:48.929Z,17.05
2023-05-03T09:49:50.538Z,17.39
2023-05-03T09:54:53.797Z,17.84
2023-05-03T09:59:55.850Z,17.92
2023-05-03T10:04:58.943Z,18.51
2023-05-03T10:10:00.536Z,18.93
2023-05-03T10:15:07.337Z,19.21
2023-05-03T10:20:14.902Z,19.81
2023-05-03T10:25:16.643Z,21.01
2023-05-03T10:30:31.348Z,22.64
2023-05-03T10:35:32.666Z,22.05
2023-05-03T10:40:43.550Z,21.85
2023-05-03T10:45:46.250Z,21.96
2023-05-03T10:50:49.252Z,22.22
2023-05-03T10:56:08.796Z,22.62
2023-05-03T11:01:12.437Z,22.61
2023-05-03T11:06:36.609Z,22.82
2023-05-03T11:11:40.256Z,23.29
2023-05-03T11:16:48.030Z,23.54
2023-05-03T11:21:50.009Z,22.99
2023-05-03T11:26:51.309Z,23.12
2023-05-03T11:31:53.399Z,23.40
2023-05-03T11:36:55.248Z,23.43
2023-05-03T11:42:04.347Z,23.65
2023-05-03T11:47:06.219Z,23.79
2023-05-03T11:52:07.736Z,23.85
2023-05-03T11:57:13.043Z,23.33
2023-05-03T12:02:16.678Z,23.63
2023-05-03T12:07:21.035Z,23.73
2023-05-03T12:12:29.609Z,23.27
2023-05-03T12:17:37.391Z,23.11
2023-05-03T12:22:39.583Z,23.14
2023-05-03T12:27:41.407Z,23.01
2023-05-03T12:32:44.373Z,22.99
2023-05-03T12:37:49.463Z,22.83
2023-05-03T12:42:51.116Z,23.10
2023-05-03T12:47:53.309Z,23.11
2023-05-03T12:52:54.911Z,22.89
2023-05-03T12:58:22.886Z,22.74
2023-05-03T13:03:21.114Z,22.82
2023-05-03T13:08:33.393Z,22.77
2023-05-03T13:18:37.084Z,22.76
2023-05-03T13:23:38.375Z,22.83
2023-05-03T13:28:42.794Z,22.83
2023-05-03T13:33:44.673Z,22.61
2023-05-03T13:38:47.145Z,22.62
2023-05-03T13:43:48.471Z,22.53
2023-05-03T13:48:49.917Z,22.39
2023-05-03T13:53:51.312Z,22.11
2023-05-03T13:58:53.530Z,22.04
2023-05-03T14:03:55.364Z,22.05
2023-05-03T14:08:58.111Z,21.89
2023-05-03T14:13:59.703Z,21.84
2023-05-03T14:19:01.638Z,21.62
2023-05-03T14:24:03.036Z,21.63
2023-05-03T14:29:05.607Z,21.42
2023-05-03T14:34:07.052Z,21.30
2023-05-03T14:39:08.313Z,21.17
2023-05-03T14:44:09.630Z,21.04
2023-05-03T14:49:10.944Z,20.90
2023-05-03T14:54:12.428Z,20.83
2023-05-03T14:59:13.785Z,20.72
2023-05-03T15:04:15.151Z,20.62
2023-05-03T15:09:17.629Z,20.55
2023-05-03T15:14:19.376Z,20.53
2023-05-03T15:19:21.409Z,20.52
2023-05-03T15:24:22.869Z,20.47
2023-05-03T15:29:24.316Z,20.33
2023-05-03T15:34:26.038Z,20.19
2023-05-03T15:39:27.384Z,20.03
2023-05-03T15:44:28.700Z,20.04
2023-05-03T15:49:29.940Z,20.02
2023-05-03T15:54:31.256Z,20.01
2023-05-03T15:59:32.642Z,19.85
2023-05-03T16:04:36.991Z,19.90
2023-05-03T16:09:38.323Z,19.87
2023-05-03T16:14:39.837Z,19.85
2023-05-03T16:19:41.127Z,19.76
2023-05-03T16:24:42.380Z,19.78
2023-05-03T16:29:43.773Z,19.71
2023-05-03T16:34:45.126Z,19.63
2023-05-03T16:39:46.429Z,19.60
2023-05-03T16:44:48.468Z,19.60
2023-05-03T16:49:49.800Z,19.46
2023-05-03T16:54:51.058Z,19.54
2023-05-03T16:59:52.458Z,19.51
2023-05-03T17:04:53.828Z,19.47
2023-05-03T17:09:55.500Z,19.32
2023-05-03T17:14:56.852Z,19.35
2023-05-03T17:19:58.202Z,19.34
2023-05-03T17:24:59.585Z,19.25
2023-05-03T17:30:00.900Z,19.20
2023-05-03T17:35:02.546Z,19.17
2023-05-03T17:40:06.410Z,19.05
2023-05-03T17:45:09.659Z,19.00
2023-05-03T17:50:11.841Z,18.90
2023-05-03T17:55:15.636Z,18.85
2023-05-03T18:00:19.030Z,18.75
2023-05-03T18:05:20.606Z,18.69
2023-05-03T18:10:22.466Z,18.60
2023-05-03T18:15:24.505Z,18.46
2023-05-03T18:20:25.839Z,18.40
2023-05-03T18:25:28.196Z,18.32
2023-05-03T18:30:29.634Z,18.25
2023-05-03T18:35:30.894Z,18.24
2023-05-03T18:40:32.136Z,18.19
2023-05-03T18:45:39.891Z,18.11
2023-05-03T18:50:44.232Z,18.04
2023-05-03T18:55:45.548Z,17.92
2023-05-03T19:00:46.962Z,17.83
2023-05-03T19:05:48.332Z,17.79
2023-05-03T19:10:49.653Z,17.71
2023-05-03T19:15:51.277Z,17.62
2023-05-03T19:20:52.689Z,17.47
2023-05-03T19:25:54.214Z,17.35
2023-05-03T19:30:55.721Z,17.25
2023-05-03T19:35:57.516Z,17.09
2023-05-03T19:40:59.691Z,17.06
2023-05-03T19:46:01.784Z,16.95
2023-05-03T19:51:05.122Z,16.90
2023-05-03T19:56:09.315Z,16.79
2023-05-03T20:01:10.729Z,16.71
2023-05-03T20:06:12.015Z,16.66
2023-05-03T20:11:13.446Z,16.54
2023-05-03T20:16:15.106Z,16.47
2023-05-03T20:21:16.515Z,16.37
2023-05-03T20:26:18.986Z,16.35
2023-05-03T20:31:20.416Z,16.24
2023-05-03T20:36:22.158Z,16.22
2023-05-03T20:41:23.897Z,16.13
2023-05-03T20:46:26.329Z,16.02
2023-05-03T20:51:27.649Z,15.98
2023-05-03T20:56:28.966Z,15.84
2023-05-03T21:01:30.922Z,15.77
2023-05-03T21:06:35.302Z,15.72
2023-05-03T21:11:36.683Z,15.62
2023-05-03T21:16:38.783Z,15.59
2023-05-03T21:21:42.002Z,15.50
2023-05-03T21:26:44.891Z,15.46
2023-05-03T21:31:46.488Z,15.37
2023-05-03T21:36:47.798Z,15.33
2023-05-03T21:41:49.121Z,15.20
2023-05-03T21:46:51.048Z,15.17
2023-05-03T21:51:52.697Z,15.10
2023-05-03T21:56:54.006Z,15.05
2023-05-03T22:01:55.342Z,14.97
2023-05-03T22:06:57.284Z,14.94
2023-05-03T22:11:59.438Z,14.89
2023-05-03T22:17:01.942Z,14.81
2023-05-03T22:22:03.451Z,14.79
2023-05-03T22:27:04.726Z,14.75
2023-05-03T22:32:07.211Z,14.63
2023-05-03T22:37:08.611Z,14.55
2023-05-03T22:42:09.874Z,14.45
2023-05-03T22:47:11.272Z,14.36
2023-05-03T22:52:12.734Z,14.29
2023-05-03T22:57:14.071Z,14.21
2023-05-03T23:02:15.355Z,14.19
2023-05-03T23:07:16.657Z,14.09
2023-05-03T23:12:18.550Z,14.03
2023-05-03T23:17:20.311Z,13.91
2023-05-03T23:22:21.632Z,13.88
2023-05-03T23:27:23.018Z,13.78
2023-05-03T23:32:24.838Z,13.77
2023-05-03T23:37:26.998Z,13.68
2023-05-03T23:42:28.327Z,13.58
2023-05-03T23:47:29.620Z,13.56
2023-05-03T23:52:31.248Z,13.51
2023-05-03T23:57:32.595Z,13.46
